createdAt,value
2022-08-26T00:02:12.683Z,44.72
2022-08-26T00:04:41.134Z,45.77
2022-08-26T00:07:09.050Z,45.61
2022-08-26T00:09:37.285Z,45.13
2022-08-26T00:12:09.557Z,45.57
2022-08-26T00:14:40.454Z,45.77
2022-08-26T00:17:08.768Z,45.24
2022-08-26T00:19:37.352Z,45.78
2022-08-26T00:22:06.023Z,45.29
2022-08-26T00:24:34.442Z,45.23
2022-08-26T00:27:02.359Z,44.87
2022-08-26T00:29:32.041Z,45.94
2022-08-26T00:32:06.564Z,47.02
2022-08-26T00:34:34.832Z,45.86
2022-08-26T00:37:02.662Z,45.68
2022-08-26T00:39:32.160Z,45.71
2022-08-26T00:42:00.536Z,45.74
2022-08-26T00:44:28.241Z,45.59
2022-08-26T00:47:02.772Z,46.05
2022-08-26T00:49:43.829Z,46.59
2022-08-26T00:52:19.728Z,48.01
2022-08-26T00:54:56.609Z,48.35
2022-08-26T00:57:25.532Z,48.47
2022-08-26T00:59:58.455Z,48.07
2022-08-26T01:02:27.224Z,47.50
2022-08-26T01:05:00.827Z,48.43
2022-08-26T01:07:32.669Z,48.70
2022-08-26T01:10:06.758Z,49.57
2022-08-26T01:12:42.490Z,48.89
2022-08-26T01:15:15.488Z,49.76
2022-08-26T01:17:43.875Z,49.57
2022-08-26T01:20:31.990Z,49.74
2022-08-26T01:23:03.393Z,50.40
2022-08-26T01:25:34.336Z,51.02
2022-08-26T01:28:06.549Z,50.77
2022-08-26T01:30:35.729Z,50.91
2022-08-26T01:33:06.893Z,50.55
2022-08-26T01:35:34.843Z,50.62
2022-08-26T01:38:04.189Z,50.63
2022-08-26T01:40:37.316Z,51.79
2022-08-26T01:43:09.662Z,50.68
2022-08-26T01:45:40.581Z,51.04
2022-08-26T01:48:14.553Z,50.60
2022-08-26T01:50:45.151Z,50.20
2022-08-26T01:53:17.145Z,50.21
2022-08-26T01:55:49.133Z,49.33
2022-08-26T01:58:22.836Z,49.57
2022-08-26T02:00:52.287Z,49.16
2022-08-26T02:03:22.370Z,49.11
2022-08-26T02:06:00.700Z,49.51
2022-08-26T02:08:36.005Z,50.92
2022-08-26T02:11:04.793Z,50.28
2022-08-26T02:13:38.153Z,50.95
2022-08-26T02:16:08.402Z,51.60
2022-08-26T02:18:40.280Z,51.92
2022-08-26T02:21:10.102Z,51.38
2022-08-26T02:23:38.224Z,52.13
2022-08-26T02:26:17.932Z,51.81
2022-08-26T02:29:27.603Z,51.92
2022-08-26T02:31:56.010Z,52.45
2022-08-26T02:34:32.007Z,52.42
2022-08-26T02:37:02.358Z,51.40
2022-08-26T02:39:32.695Z,51.49
2022-08-26T02:42:00.548Z,51.91
2022-08-26T02:44:29.091Z,50.95
2022-08-26T02:46:57.500Z,52.26
2022-08-26T02:49:26.978Z,51.59
2022-08-26T02:51:54.680Z,51.43
2022-08-26T02:54:22.999Z,51.35
2022-08-26T02:56:51.526Z,52.01
2022-08-26T02:59:19.254Z,51.61
2022-08-26T03:01:55.926Z,52.37
2022-08-26T03:04:25.886Z,52.29
2022-08-26T03:06:55.592Z,52.27
2022-08-26T03:09:24.458Z,53.14
2022-08-26T03:11:52.414Z,53.08
2022-08-26T03:14:21.013Z,52.80
2022-08-26T03:16:50.946Z,51.97
2022-08-26T03:19:19.175Z,51.37
2022-08-26T03:21:47.962Z,51.94
2022-08-26T03:24:17.612Z,50.98
2022-08-26T03:26:52.743Z,51.36
2022-08-26T03:29:41.669Z,51.00
2022-08-26T03:32:10.073Z,50.32
2022-08-26T03:34:38.744Z,50.86
2022-08-26T03:37:06.578Z,51.57
2022-08-26T03:39:34.679Z,51.43
2022-08-26T03:42:02.703Z,50.94
2022-08-26T03:44:30.545Z,51.09
2022-08-26T03:46:58.275Z,51.06
2022-08-26T03:49:28.892Z,50.87
2022-08-26T03:51:56.729Z,51.79
2022-08-26T03:54:24.531Z,51.33
2022-08-26T03:56:52.776Z,51.45
2022-08-26T03:59:21.014Z,51.12
2022-08-26T04:01:49.006Z,51.43
2022-08-26T04:04:17.284Z,51.26
2022-08-26T04:06:45.192Z,51.59
2022-08-26T04:09:20.894Z,51.75
2022-08-26T04:11:50.733Z,51.18
2022-08-26T04:14:22.668Z,51.17
2022-08-26T04:16:52.235Z,51.78
2022-08-26T04:19:21.176Z,51.09
2022-08-26T04:21:53.282Z,51.13
2022-08-26T04:24:24.654Z,51.42
2022-08-26T04:26:52.867Z,51.00
2022-08-26T04:29:26.368Z,50.97
2022-08-26T04:31:55.965Z,51.14
2022-08-26T04:34:27.268Z,51.19
2022-08-26T04:36:57.749Z,50.67
2022-08-26T04:39:27.691Z,50.37
2022-08-26T04:41:57.870Z,50.29
2022-08-26T04:44:29.185Z,50.17
2022-08-26T04:46:58.562Z,49.93
2022-08-26T04:49:27.656Z,50.55
2022-08-26T04:51:55.397Z,50.40
2022-08-26T04:54:23.754Z,49.58
2022-08-26T04:56:54.245Z,49.68
2022-08-26T04:59:22.030Z,49.31
2022-08-26T05:01:53.303Z,49.19
2022-08-26T05:04:21.475Z,48.76
2022-08-26T05:06:50.111Z,48.95
2022-08-26T05:09:21.486Z,48.52
2022-08-26T05:11:52.158Z,48.29
2022-08-26T05:14:20.433Z,48.02
2022-08-26T05:16:48.095Z,48.20
2022-08-26T05:19:19.194Z,47.61
2022-08-26T05:21:48.727Z,47.73
2022-08-26T05:24:17.829Z,47.26
2022-08-26T05:26:47.280Z,47.53
2022-08-26T05:29:17.043Z,46.75
2022-08-26T05:31:44.713Z,46.45
2022-08-26T05:34:13.139Z,45.92
2022-08-26T05:36:41.294Z,45.08
2022-08-26T05:39:10.611Z,45.51
2022-08-26T05:41:41.355Z,45.18
2022-08-26T05:44:11.093Z,44.61
2022-08-26T05:46:40.424Z,45.24
2022-08-26T05:49:12.520Z,43.89
2022-08-26T05:51:45.244Z,44.61
2022-08-26T05:54:14.941Z,44.01
2022-08-26T05:56:53.269Z,43.67
2022-08-26T05:59:24.214Z,43.15
2022-08-26T06:01:55.202Z,42.91
2022-08-26T06:04:28.393Z,42.09
2022-08-26T06:06:58.262Z,42.09
2022-08-26T06:09:26.993Z,41.63
2022-08-26T06:11:55.987Z,41.73
2022-08-26T06:14:23.818Z,41.21
2022-08-26T06:16:52.062Z,41.23
2022-08-26T06:19:21.645Z,40.28
2022-08-26T06:21:53.988Z,40.40
2022-08-26T06:24:41.520Z,39.95
2022-08-26T06:27:13.772Z,40.20
2022-08-26T06:29:41.962Z,40.43
2022-08-26T06:32:09.663Z,39.98
2022-08-26T06:34:37.495Z,40.05
2022-08-26T06:37:06.248Z,38.81
2022-08-26T06:39:34.446Z,38.59
2022-08-26T06:42:06.080Z,38.17
2022-08-26T06:44:34.839Z,37.90
2022-08-26T06:47:02.592Z,37.64
2022-08-26T06:49:30.430Z,36.33
2022-08-26T06:51:58.932Z,36.23
2022-08-26T06:54:32.254Z,35.27
2022-08-26T06:57:01.200Z,35.92
2022-08-26T06:59:31.247Z,35.85
2022-08-26T07:01:59.165Z,35.35
2022-08-26T07:04:28.137Z,35.23
2022-08-26T07:06:56.570Z,35.00
2022-08-26T07:09:28.179Z,34.43
2022-08-26T07:11:56.679Z,33.38
2022-08-26T07:14:26.178Z,33.30
2022-08-26T07:16:54.972Z,33.42
2022-08-26T07:19:30.386Z,33.13
2022-08-26T07:22:02.277Z,33.13
2022-08-26T07:24:33.433Z,33.19
2022-08-26T07:27:06.416Z,33.18
2022-08-26T07:29:36.198Z,32.69
2022-08-26T07:32:05.233Z,32.43
2022-08-26T07:34:33.481Z,31.64
2022-08-26T07:37:02.003Z,31.66
2022-08-26T07:39:31.438Z,31.92
2022-08-26T07:42:08.038Z,31.42
2022-08-26T07:44:37.634Z,30.94
2022-08-26T07:47:24.041Z,30.48
2022-08-26T07:49:56.201Z,30.58
2022-08-26T07:52:27.201Z,31.39
2022-08-26T07:55:01.452Z,30.46
2022-08-26T07:57:30.495Z,30.46
2022-08-26T07:59:59.793Z,29.68
2022-08-26T08:02:29.421Z,29.20
2022-08-26T08:04:58.531Z,30.43
2022-08-26T08:07:45.107Z,28.44
2022-08-26T08:10:17.717Z,28.73
2022-08-26T08:12:47.096Z,28.71
2022-08-26T08:15:17.117Z,28.87
2022-08-26T08:17:44.880Z,28.12
2022-08-26T08:20:14.575Z,27.66
2022-08-26T08:22:43.260Z,27.93
2022-08-26T08:25:12.471Z,27.64
2022-08-26T08:27:42.230Z,27.61
2022-08-26T08:30:10.926Z,27.46
2022-08-26T08:32:43.796Z,26.79
2022-08-26T08:35:17.284Z,27.25
2022-08-26T08:37:45.478Z,27.11
2022-08-26T08:40:19.028Z,25.97
2022-08-26T08:43:11.400Z,26.11
2022-08-26T08:45:57.920Z,25.80
2022-08-26T08:48:51.361Z,26.24
2022-08-26T08:51:46.013Z,26.31
2022-08-26T08:54:14.540Z,25.81
2022-08-26T08:56:50.014Z,25.61
2022-08-26T08:59:32.888Z,25.79
2022-08-26T09:02:21.371Z,26.25
2022-08-26T09:05:25.190Z,25.54
2022-08-26T09:08:02.664Z,25.97
2022-08-26T09:10:30.335Z,25.76
2022-08-26T09:13:00.073Z,25.58
2022-08-26T09:15:49.850Z,25.43
2022-08-26T09:18:46.174Z,25.79
2022-08-26T09:21:17.922Z,25.57
2022-08-26T09:23:49.690Z,24.40
2022-08-26T09:26:28.740Z,23.22
2022-08-26T09:29:04.154Z,24.15
2022-08-26T09:31:37.696Z,24.08
2022-08-26T09:34:17.882Z,23.26
2022-08-26T09:36:53.509Z,24.22
2022-08-26T09:39:28.011Z,23.96
2022-08-26T09:42:03.566Z,23.47
2022-08-26T09:44:31.873Z,23.23
2022-08-26T09:47:05.237Z,23.29
2022-08-26T09:49:39.189Z,22.30
2022-08-26T09:52:14.736Z,22.62
2022-08-26T09:54:46.036Z,22.35
2022-08-26T09:57:16.797Z,22.46
2022-08-26T09:59:45.397Z,21.32
2022-08-26T10:02:34.060Z,21.66
2022-08-26T10:05:09.659Z,21.68
2022-08-26T10:07:51.075Z,21.62
2022-08-26T10:10:25.177Z,19.91
2022-08-26T10:13:03.483Z,19.70
2022-08-26T10:15:41.799Z,20.42
2022-08-26T10:18:30.727Z,20.02
2022-08-26T10:21:07.744Z,20.72
2022-08-26T10:23:43.526Z,20.69
2022-08-26T10:26:19.424Z,20.56
2022-08-26T10:28:52.756Z,20.44
2022-08-26T10:31:27.739Z,20.29
2022-08-26T10:33:58.879Z,21.16
2022-08-26T10:37:15.065Z,21.05
2022-08-26T10:39:42.715Z,21.67
2022-08-26T10:42:22.275Z,20.18
2022-08-26T10:44:58.679Z,21.28
2022-08-26T10:48:01.309Z,20.40
2022-08-26T10:50:41.614Z,21.00
2022-08-26T10:53:34.633Z,20.17
2022-08-26T10:56:06.296Z,20.69
2022-08-26T10:59:00.380Z,20.02
2022-08-26T11:01:47.149Z,20.08
2022-08-26T11:04:34.980Z,20.03
2022-08-26T11:07:41.937Z,19.36
2022-08-26T11:10:22.624Z,20.21
2022-08-26T11:13:03.617Z,20.11
2022-08-26T11:15:32.369Z,19.99
2022-08-26T11:18:08.075Z,20.10
2022-08-26T11:20:41.952Z,20.58
2022-08-26T11:23:13.084Z,20.62
2022-08-26T11:25:57.154Z,20.26
2022-08-26T11:28:44.905Z,20.56
2022-08-26T11:31:19.119Z,20.36
2022-08-26T11:33:51.061Z,20.41
2022-08-26T11:36:37.776Z,19.91
2022-08-26T11:39:36.941Z,20.39
2022-08-26T11:42:28.612Z,20.95
2022-08-26T11:44:58.254Z,20.28
2022-08-26T11:47:32.331Z,19.91
2022-08-26T11:50:23.547Z,20.07
2022-08-26T11:53:06.399Z,19.97
2022-08-26T11:55:43.622Z,20.30
2022-08-26T11:58:14.487Z,20.31
2022-08-26T12:01:00.492Z,19.90
2022-08-26T12:03:40.361Z,19.73
2022-08-26T12:06:23.339Z,20.39
2022-08-26T12:08:53.689Z,20.25
2022-08-26T12:11:24.897Z,19.56
2022-08-26T12:13:57.620Z,19.62
2022-08-26T12:16:27.934Z,20.19
2022-08-26T12:18:56.093Z,20.03
2022-08-26T12:21:29.741Z,19.28
2022-08-26T12:24:04.123Z,19.63
2022-08-26T12:26:35.898Z,19.53
2022-08-26T12:29:20.363Z,19.39
2022-08-26T12:32:17.771Z,19.51
2022-08-26T12:34:49.162Z,19.18
2022-08-26T12:37:18.887Z,18.96
2022-08-26T12:39:49.113Z,19.56
2022-08-26T12:42:19.924Z,19.83
2022-08-26T12:45:06.678Z,18.80
2022-08-26T12:47:44.111Z,18.59
2022-08-26T12:50:23.913Z,18.61
2022-08-26T12:53:00.730Z,18.32
2022-08-26T12:55:31.717Z,18.38
2022-08-26T12:58:18.514Z,18.59
2022-08-26T13:00:50.470Z,18.44
2022-08-26T13:03:46.094Z,18.74
2022-08-26T13:06:23.317Z,19.03
2022-08-26T13:08:54.463Z,19.49
2022-08-26T13:11:40.768Z,19.22
2022-08-26T13:14:21.121Z,19.13
2022-08-26T13:16:53.601Z,18.81
2022-08-26T13:19:24.129Z,19.17
2022-08-26T13:22:01.570Z,18.34
2022-08-26T13:24:35.220Z,19.09
2022-08-26T13:27:05.147Z,18.32
2022-08-26T13:29:33.060Z,18.96
2022-08-26T13:32:01.454Z,19.08
2022-08-26T13:34:30.388Z,18.88
2022-08-26T13:36:58.551Z,19.44
2022-08-26T13:39:27.014Z,19.00
2022-08-26T13:41:55.061Z,18.87
2022-08-26T13:44:22.843Z,19.31
2022-08-26T13:46:50.535Z,19.12
2022-08-26T13:49:18.453Z,18.55
2022-08-26T13:51:46.197Z,18.71
2022-08-26T13:54:13.917Z,18.50
2022-08-26T13:56:41.865Z,18.16
2022-08-26T13:59:10.046Z,18.15
2022-08-26T14:01:39.883Z,18.74
2022-08-26T14:04:11.519Z,18.38
2022-08-26T14:06:39.205Z,18.64
2022-08-26T14:09:06.913Z,18.64
2022-08-26T14:11:41.235Z,19.09
2022-08-26T14:14:22.049Z,18.85
2022-08-26T14:16:58.928Z,19.44
2022-08-26T14:19:30.053Z,19.01
2022-08-26T14:22:00.816Z,19.07
2022-08-26T14:24:29.318Z,18.63
2022-08-26T14:26:57.083Z,18.93
2022-08-26T14:29:25.099Z,19.08
2022-08-26T14:31:54.102Z,19.33
2022-08-26T14:34:21.894Z,19.50
2022-08-26T14:36:49.859Z,19.59
2022-08-26T14:39:17.535Z,19.56
2022-08-26T14:41:56.420Z,19.59
2022-08-26T14:44:28.210Z,20.35
2022-08-26T14:46:56.390Z,19.80
2022-08-26T14:49:27.337Z,19.24
2022-08-26T14:51:55.715Z,19.12
2022-08-26T14:54:23.476Z,18.81
2022-08-26T14:57:00.468Z,18.79
2022-08-26T14:59:31.988Z,18.74
2022-08-26T15:02:00.932Z,19.04
2022-08-26T15:04:28.817Z,19.75
2022-08-26T15:06:59.003Z,20.30
2022-08-26T15:09:29.454Z,19.90
2022-08-26T15:11:57.675Z,20.98
2022-08-26T15:14:27.653Z,20.96
2022-08-26T15:17:00.654Z,20.79
2022-08-26T15:19:28.623Z,20.83
2022-08-26T15:21:56.513Z,20.92
2022-08-26T15:24:26.286Z,21.51
2022-08-26T15:26:54.367Z,21.48
2022-08-26T15:29:24.004Z,21.01
2022-08-26T15:31:51.920Z,21.63
2022-08-26T15:34:22.973Z,20.81
2022-08-26T15:36:50.713Z,21.45
2022-08-26T15:39:19.721Z,20.51
2022-08-26T15:41:47.660Z,20.31
2022-08-26T15:44:17.024Z,20.72
2022-08-26T15:46:45.364Z,21.46
2022-08-26T15:49:18.458Z,20.79
2022-08-26T15:51:50.465Z,20.79
2022-08-26T15:54:22.364Z,20.78
2022-08-26T15:56:52.553Z,21.23
2022-08-26T15:59:21.795Z,20.91
2022-08-26T16:01:49.875Z,20.85
2022-08-26T16:04:18.762Z,20.65
2022-08-26T16:06:50.243Z,20.37
2022-08-26T16:09:24.338Z,21.14
2022-08-26T16:11:56.997Z,20.80
2022-08-26T16:14:26.609Z,21.03
2022-08-26T16:16:58.015Z,20.65
2022-08-26T16:19:27.589Z,20.65
2022-08-26T16:21:55.321Z,20.32
2022-08-26T16:24:27.177Z,19.88
2022-08-26T16:26:58.363Z,19.52
2022-08-26T16:29:26.704Z,19.95
2022-08-26T16:31:54.836Z,20.13
2022-08-26T16:34:23.040Z,19.82
2022-08-26T16:36:51.053Z,20.70
2022-08-26T16:39:18.719Z,21.05
2022-08-26T16:41:46.796Z,20.97
2022-08-26T16:44:14.557Z,21.21
2022-08-26T16:46:42.434Z,21.23
2022-08-26T16:49:10.487Z,21.30
2022-08-26T16:51:38.578Z,21.56
2022-08-26T16:54:07.880Z,21.37
2022-08-26T16:56:37.100Z,21.08
2022-08-26T16:59:07.765Z,21.62
2022-08-26T17:01:35.656Z,21.68
2022-08-26T17:04:03.964Z,21.74
2022-08-26T17:06:31.714Z,22.03
2022-08-26T17:09:00.598Z,22.20
2022-08-26T17:11:28.624Z,22.18
2022-08-26T17:13:56.983Z,22.19
2022-08-26T17:16:27.031Z,22.65
2022-08-26T17:18:56.875Z,22.64
2022-08-26T17:21:26.067Z,23.15
2022-08-26T17:23:54.211Z,23.23
2022-08-26T17:26:22.639Z,23.17
2022-08-26T17:28:51.204Z,22.94
2022-08-26T17:31:19.558Z,22.91
2022-08-26T17:33:53.250Z,23.08
2022-08-26T17:36:28.116Z,23.54
2022-08-26T17:38:57.584Z,25.87
2022-08-26T17:41:25.909Z,26.41
2022-08-26T17:43:53.669Z,26.56
2022-08-26T17:46:22.187Z,26.52
2022-08-26T17:48:49.971Z,26.95
2022-08-26T17:51:19.515Z,26.92
2022-08-26T17:53:48.659Z,27.63
2022-08-26T17:56:19.095Z,28.47
2022-08-26T17:58:48.052Z,29.51
2022-08-26T18:01:26.191Z,29.47
2022-08-26T18:04:00.126Z,29.44
2022-08-26T18:06:30.650Z,29.91
2022-08-26T18:08:59.899Z,30.21
2022-08-26T18:11:33.690Z,29.78
2022-08-26T18:14:02.184Z,30.36
2022-08-26T18:16:31.743Z,30.87
2022-08-26T18:18:59.909Z,29.45
2022-08-26T18:21:28.110Z,30.12
2022-08-26T18:23:56.540Z,30.51
2022-08-26T18:26:30.087Z,31.29
2022-08-26T18:28:58.834Z,31.53
2022-08-26T18:31:27.221Z,31.23
2022-08-26T18:33:55.231Z,32.52
2022-08-26T18:36:26.887Z,31.64
2022-08-26T18:38:55.634Z,32.70
2022-08-26T18:41:25.966Z,33.38
2022-08-26T18:43:54.160Z,33.08
2022-08-26T18:46:27.100Z,33.17
2022-08-26T18:48:57.097Z,33.38
2022-08-26T18:51:29.661Z,33.86
2022-08-26T18:53:59.674Z,34.79
2022-08-26T18:56:28.577Z,34.78
2022-08-26T18:58:56.295Z,33.48
2022-08-26T19:01:27.387Z,34.66
2022-08-26T19:03:57.686Z,34.71
2022-08-26T19:06:26.119Z,34.06
2022-08-26T19:08:53.986Z,35.34
2022-08-26T19:11:32.135Z,35.82
2022-08-26T19:14:02.450Z,35.86
2022-08-26T19:16:30.867Z,35.90
2022-08-26T19:19:00.710Z,35.85
2022-08-26T19:21:29.857Z,36.66
2022-08-26T19:23:59.275Z,36.66
2022-08-26T19:26:29.348Z,36.24
2022-08-26T19:28:57.447Z,36.41
2022-08-26T19:31:25.290Z,36.57
2022-08-26T19:33:53.094Z,36.78
2022-08-26T19:36:24.871Z,36.48
2022-08-26T19:38:53.594Z,36.14
2022-08-26T19:41:34.158Z,36.82
2022-08-26T19:44:11.189Z,37.09
2022-08-26T19:49:12.193Z,36.19
2022-08-26T19:51:40.343Z,35.74
2022-08-26T19:54:08.139Z,34.58
2022-08-26T19:56:36.609Z,34.71
2022-08-26T19:59:04.737Z,34.95
2022-08-26T20:01:32.487Z,35.44
2022-08-26T20:04:00.831Z,34.59
2022-08-26T20:06:28.627Z,32.24
2022-08-26T20:08:56.474Z,32.06
2022-08-26T20:11:24.600Z,34.58
2022-08-26T20:13:52.340Z,34.24
2022-08-26T20:16:20.123Z,35.23
2022-08-26T20:19:06.983Z,34.94
2022-08-26T20:21:38.207Z,35.68
2022-08-26T20:24:12.682Z,36.06
2022-08-26T20:26:46.141Z,34.70
2022-08-26T20:29:17.306Z,34.61
2022-08-26T20:31:46.622Z,34.12
2022-08-26T20:34:18.520Z,35.52
2022-08-26T20:36:47.862Z,36.18
2022-08-26T20:39:17.948Z,36.87
2022-08-26T20:41:45.735Z,36.65
2022-08-26T20:44:13.916Z,36.35
2022-08-26T20:46:42.040Z,35.44
2022-08-26T20:49:10.058Z,36.45
2022-08-26T20:51:37.818Z,36.02
2022-08-26T20:54:07.122Z,36.80
2022-08-26T20:56:35.688Z,37.38
2022-08-26T20:59:05.400Z,37.54
2022-08-26T21:01:36.180Z,38.01
2022-08-26T21:04:04.887Z,37.56
2022-08-26T21:06:34.031Z,37.98
2022-08-26T21:09:03.615Z,37.76
2022-08-26T21:11:32.096Z,37.89
2022-08-26T21:14:06.780Z,38.35
2022-08-26T21:16:44.767Z,37.83
2022-08-26T21:19:15.057Z,37.34
2022-08-26T21:21:43.171Z,38.54
2022-08-26T21:24:10.995Z,38.70
2022-08-26T21:26:39.378Z,37.96
2022-08-26T21:29:09.891Z,38.60
2022-08-26T21:31:44.901Z,37.84
2022-08-26T21:34:18.732Z,38.04
2022-08-26T21:36:47.978Z,37.24
2022-08-26T21:39:16.444Z,37.48
2022-08-26T21:41:45.439Z,37.58
2022-08-26T21:44:15.386Z,37.74
2022-08-26T21:46:45.169Z,38.85
2022-08-26T21:49:15.749Z,39.29
2022-08-26T21:51:46.437Z,37.96
2022-08-26T21:54:14.320Z,39.80
2022-08-26T21:56:47.154Z,39.43
2022-08-26T21:59:18.078Z,39.33
2022-08-26T22:01:46.279Z,39.25
2022-08-26T22:04:14.835Z,39.09
2022-08-26T22:06:48.848Z,40.08
2022-08-26T22:09:21.625Z,40.92
2022-08-26T22:11:50.201Z,42.28
2022-08-26T22:14:22.078Z,40.00
2022-08-26T22:16:50.990Z,41.60
2022-08-26T22:19:20.638Z,41.24
2022-08-26T22:21:53.898Z,40.57
2022-08-26T22:24:24.194Z,40.52
2022-08-26T22:26:52.619Z,41.61
2022-08-26T22:29:20.914Z,41.32
2022-08-26T22:31:49.064Z,41.68
2022-08-26T22:34:17.529Z,40.85
2022-08-26T22:36:47.314Z,40.15
2022-08-26T22:39:19.366Z,39.50
2022-08-26T22:41:48.589Z,39.09
2022-08-26T22:44:18.453Z,39.66
2022-08-26T22:46:47.447Z,39.29
2022-08-26T22:49:16.498Z,39.04
2022-08-26T22:51:46.294Z,40.05
2022-08-26T22:54:14.961Z,38.66
2022-08-26T22:56:44.852Z,40.67
2022-08-26T22:59:13.202Z,40.20
2022-08-26T23:01:42.992Z,38.82
2022-08-26T23:04:11.592Z,39.97
2022-08-26T23:06:42.680Z,39.17
2022-08-26T23:09:10.876Z,41.26
2022-08-26T23:11:42.983Z,40.27
2022-08-26T23:14:11.295Z,39.88
2022-08-26T23:16:41.972Z,39.55
2022-08-26T23:19:11.536Z,40.04
2022-08-26T23:21:40.425Z,40.35
2022-08-26T23:24:09.593Z,40.11
2022-08-26T23:26:39.140Z,40.90
2022-08-26T23:29:09.424Z,40.35
2022-08-26T23:31:39.042Z,39.07
2022-08-26T23:34:26.098Z,39.22
2022-08-26T23:36:57.035Z,38.28
2022-08-26T23:39:25.759Z,38.33
2022-08-26T23:41:53.503Z,38.87
2022-08-26T23:44:21.327Z,39.59
2022-08-26T23:46:49.380Z,40.33
2022-08-26T23:49:17.082Z,39.10
2022-08-26T23:52:03.710Z,40.23
2022-08-26T23:54:32.783Z,40.26
2022-08-26T23:57:00.659Z,39.51
2022-08-26T23:59:28.464Z,39.22
